Time;durP1;ratioP1;P1;durP2;ratioP2;P2;SDS_P1;SDS_P2;PMS_P1;PMS_P2;Temp;Humidity;BMP_temperature;BMP_pressure;BME280_temperature;BME280_humidity;BME280_pressure;Samples;Min_cycle;Max_cycle;Signal;HPM_P1;HPM_P2
2024/04/13 00:05:27;;;;;;;14.40;8.60;;;;;;;12.55;68.24;99514.23;435390;1252;112078;-41
2024/04/13 00:15:36;;;;;;;15.90;9.10;;;;;;;12.44;68.60;99504.14;435399;1254;108024;-41
2024/04/13 00:25:44;;;;;;;;;;;;;;;12.26;68.93;99502.57;435330;1254;99259;-39
2024/04/13 00:35:50;;;;;;;14.20;10.60;;;;;;;12.06;69.18;99501.53;435342;1254;108909;-41
2024/04/13 00:46:07;;;;;;;14.40;9.80;;;;;;;11.96;69.53;99497.09;435283;1254;99332;-39
2024/04/13 00:56:12;;;;;;;16.90;9.60;;;;;;;11.97;69.84;99494.05;435200;1254;112346;-42
2024/04/13 01:06:17;;;;;;;18.70;10.80;;;;;;;11.93;70.19;99489.58;435286;1254;108502;-42
2024/04/13 01:16:28;;;;;;;16.00;9.90;;;;;;;11.78;70.16;99492.30;436350;1250;98011;-40
2024/04/13 01:26:37;;;;;;;14.80;8.60;;;;;;;11.64;70.74;99492.35;435652;1249;108441;-41
2024/04/13 01:36:47;;;;;;;15.80;9.20;;;;;;;11.58;70.78;99493.08;435789;1253;99270;-41
2024/04/13 01:46:51;;;;;;;22.20;10.40;;;;;;;11.49;71.18;99485.20;435918;1253;112701;-41
2024/04/13 01:57:00;;;;;;;17.30;10.00;;;;;;;11.39;71.43;99480.95;435778;1253;107278;-41
2024/04/13 02:07:05;;;;;;;17.50;9.00;;;;;;;11.37;71.32;99482.43;435829;1254;98520;-41
2024/04/13 02:17:10;;;;;;;16.80;8.60;;;;;;;11.43;71.50;99479.30;435597;1250;108869;-41
2024/04/13 02:27:15;;;;;;;15.00;8.20;;;;;;;11.56;71.68;99481.02;435625;1253;98022;-41
2024/04/13 02:37:23;;;;;;;14.30;8.70;;;;;;;11.50;71.61;99470.48;435867;1251;112092;-40
2024/04/13 02:47:37;;;;;;;11.60;8.20;;;;;;;11.43;71.66;99470.13;435905;1253;107512;-41
2024/04/13 02:57:43;;;;;;;18.00;9.10;;;;;;;11.39;71.81;99479.29;436172;1253;97923;-41
2024/04/13 03:07:52;;;;;;;13.80;8.10;;;;;;;11.47;71.93;99475.03;436193;1252;108591;-41
2024/04/13 03:18:00;;;;;;;15.50;8.20;;;;;;;11.52;72.21;99466.15;436172;1251;99340;-41
2024/04/13 03:28:06;;;;;;;18.10;10.10;;;;;;;11.53;72.48;99461.86;436155;1251;111200;-40
2024/04/13 03:38:11;;;;;;;11.70;7.40;;;;;;;11.53;72.60;99474.81;436213;1250;108596;-40
2024/04/13 03:48:17;;;;;;;11.70;6.90;;;;;;;11.62;72.72;99475.58;436303;1253;98821;-42
2024/04/13 03:58:26;;;;;;;12.00;7.90;;;;;;;11.72;72.80;99474.67;436124;1250;108504;-40
2024/04/13 04:08:31;;;;;;;15.20;7.60;;;;;;;11.74;73.00;99481.30;436057;1254;99245;-41
2024/04/13 04:18:36;;;;;;;11.10;7.50;;;;;;;11.75;72.91;99485.65;436280;1253;112126;-41
2024/04/13 04:28:42;;;;;;;15.60;8.40;;;;;;;11.84;72.80;99491.31;435978;1250;108517;-40
2024/04/13 04:38:47;;;;;;;11.40;8.60;;;;;;;12.00;72.84;99494.52;436053;1250;99346;-41
2024/04/13 04:48:52;;;;;;;13.30;7.00;;;;;;;12.20;73.09;99500.50;436100;1261;107583;-40
2024/04/13 04:58:58;;;;;;;12.30;6.60;;;;;;;12.37;73.13;99502.70;436152;1250;98863;-40
2024/04/13 05:09:04;;;;;;;10.10;6.50;;;;;;;12.63;73.28;99506.23;436026;1252;112371;-40
2024/04/13 05:19:09;;;;;;;8.20;6.40;;;;;;;13.61;73.74;99505.92;436072;1253;108604;-41
2024/04/13 05:29:16;;;;;;;11.70;7.10;;;;;;;14.52;72.96;99493.85;436408;1250;99884;-42
2024/04/13 05:39:30;;;;;;;11.30;6.80;;;;;;;15.35;72.39;99487.15;436262;1253;108723;-40
2024/04/13 05:49:36;;;;;;;13.70;6.80;;;;;;;15.90;71.74;99495.52;435593;1250;511171;-41
2024/04/13 05:59:41;;;;;;;10.60;6.80;;;;;;;15.80;71.19;99498.35;436217;1250;111847;-40
2024/04/13 06:09:50;;;;;;;7.10;6.10;;;;;;;15.86;70.88;99497.11;436159;1253;109648;-40
2024/04/13 06:19:55;;;;;;;15.50;7.40;;;;;;;15.70;70.81;99496.52;436216;1253;97964;-40
2024/04/13 06:30:00;;;;;;;12.10;7.10;;;;;;;16.40;71.56;99493.92;436235;1253;108612;-40
2024/04/13 06:40:07;;;;;;;12.40;7.50;;;;;;;18.13;70.93;99486.52;436250;1250;98726;-41
2024/04/13 06:50:12;;;;;;;10.30;7.70;;;;;;;19.20;68.63;99478.63;436464;1252;112343;-41
2024/04/13 07:00:20;;;;;;;10.70;8.00;;;;;;;19.87;67.02;99474.09;436228;1253;108559;-41
2024/04/13 07:10:29;;;;;;;12.40;8.30;;;;;;;20.25;64.85;99479.42;436353;1254;99856;-41
2024/04/13 07:20:35;;;;;;;9.00;5.20;;;;;;;20.33;63.10;99485.20;436267;1253;108539;-41
2024/04/13 07:30:40;;;;;;;8.40;5.40;;;;;;;20.54;61.87;99471.78;436300;1251;99234;-40
2024/04/13 07:40:45;;;;;;;7.40;5.80;;;;;;;20.48;61.92;99477.55;436307;1261;111913;-41
2024/04/13 07:50:50;;;;;;;8.00;5.20;;;;;;;20.36;61.65;99478.00;436358;1251;108545;-40
2024/04/13 08:00:55;;;;;;;9.30;6.30;;;;;;;20.26;61.25;99480.48;436133;1253;99234;-42
2024/04/13 08:11:00;;;;;;;10.70;7.20;;;;;;;20.32;61.55;99479.94;436169;1248;108744;-41
2024/04/13 08:21:06;;;;;;;17.60;7.80;;;;;;;19.98;60.72;99478.16;436202;1251;98011;-41
2024/04/13 08:31:11;;;;;;;16.70;11.00;;;;;;;19.54;61.37;99475.85;436354;1251;111715;-41
2024/04/13 08:41:31;;;;;;;13.30;9.30;;;;;;;19.28;61.59;99474.52;436219;1253;108600;-40
2024/04/13 08:51:38;;;;;;;14.70;9.90;;;;;;;19.43;61.79;99473.96;435952;1248;97938;-40
2024/04/13 09:01:47;;;;;;;25.90;11.10;;;;;;;19.93;61.31;99469.58;436217;1252;108902;-41
2024/04/13 09:11:55;;;;;;;14.00;9.20;;;;;;;20.18;60.80;99462.55;436139;1253;99224;-41
2024/04/13 09:22:02;;;;;;;14.60;8.70;;;;;;;20.89;58.61;99474.80;436106;1252;112201;-40
2024/04/13 09:32:07;;;;;;;33.00;7.40;;;;;;;21.34;55.57;99473.95;436194;1251;108528;-40
2024/04/13 09:42:13;;;;;;;8.90;5.70;;;;;;;21.35;54.10;99466.81;436133;1253;99242;-41
2024/04/13 09:52:18;;;;;;;6.40;4.30;;;;;;;22.02;53.72;99464.54;436030;1252;108698;-39
2024/04/13 10:02:23;;;;;;;8.10;3.20;;;;;;;22.04;51.30;99453.37;436159;1254;99230;-40
2024/04/13 10:12:32;;;;;;;10.80;3.20;;;;;;;22.04;50.63;99432.59;436163;1251;112914;-39
2024/04/13 10:22:38;;;;;;;9.60;3.00;;;;;;;22.11;48.75;99422.89;436170;1254;108266;-39
2024/04/13 10:32:44;;;;;;;3.90;2.40;;;;;;;22.19;48.62;99418.92;436208;1248;99278;-40
2024/04/13 10:42:49;;;;;;;8.00;1.80;;;;;;;22.12;45.41;99424.33;436086;1248;108645;-40
2024/04/13 10:52:56;;;;;;;6.10;1.90;;;;;;;22.05;45.19;99411.17;436212;1248;99358;-43
2024/04/13 11:03:01;;;;;;;4.60;1.50;;;;;;;22.26;44.21;99407.04;436272;1248;112198;-39
2024/04/13 11:13:07;;;;;;;3.50;2.20;;;;;;;21.99;43.59;99392.83;436146;1247;108245;-40
2024/04/13 11:23:12;;;;;;;1.60;1.40;;;;;;;22.19;43.44;99384.08;435912;1253;99630;-44
2024/04/13 11:33:17;;;;;;;4.10;1.70;;;;;;;22.29;42.88;99386.90;436076;1248;108513;-40
2024/04/13 11:43:24;;;;;;;5.70;1.90;;;;;;;22.06;41.17;99377.74;436243;1248;97923;-42
2024/04/13 11:53:30;;;;;;;5.00;1.30;;;;;;;21.61;40.64;99372.52;436255;1247;111679;-41
2024/04/13 12:03:35;;;;;;;3.50;1.10;;;;;;;21.49;41.27;99361.98;436143;1254;108659;-42
2024/04/13 12:13:42;;;;;;;7.60;1.50;;;;;;;21.76;39.83;99362.15;436016;1248;99273;-39
2024/04/13 12:23:47;;;;;;;4.10;1.20;;;;;;;21.99;40.52;99333.16;435830;1253;108472;-41
2024/04/13 12:33:52;;;;;;;16.00;1.90;;;;;;;22.02;40.25;99325.37;436096;1261;99225;-40
2024/04/13 12:43:57;;;;;;;3.00;1.30;;;;;;;22.01;40.75;99316.23;436031;1247;112142;-41
2024/04/13 12:54:27;;;;;;;3.00;1.50;;;;;;;21.80;41.19;99306.08;436177;1247;108546;-40
2024/04/13 13:04:32;;;;;;;4.80;1.20;;;;;;;21.95;41.37;99286.07;435916;1253;99286;-42
2024/04/13 13:14:37;;;;;;;4.40;1.60;;;;;;;21.78;40.64;99285.03;436064;1248;108563;-41
2024/04/13 13:24:42;;;;;;;6.20;2.00;;;;;;;21.80;41.13;99277.70;436171;1251;99352;-41
2024/04/13 13:34:47;;;;;;;6.10;2.70;;;;;;;21.74;41.02;99286.44;436138;1251;112491;-40
2024/04/13 13:44:52;;;;;;;6.80;3.80;;;;;;;21.67;41.23;99275.48;436182;1253;108610;-41
2024/04/13 13:55:00;;;;;;;4.40;2.50;;;;;;;21.65;42.33;99260.80;436030;1254;98018;-40
2024/04/13 14:05:06;;;;;;;4.70;2.00;;;;;;;21.61;43.09;99257.89;436065;1253;108467;-38
2024/04/13 14:15:11;;;;;;;3.90;3.50;;;;;;;21.46;43.57;99258.64;435984;1248;99214;-39
2024/04/13 14:25:17;;;;;;;5.20;2.50;;;;;;;21.42;43.94;99257.13;436158;1247;112162;-40
2024/04/13 14:35:48;;;;;;;3.70;2.30;;;;;;;21.28;44.20;99253.66;436151;1253;108672;-42
2024/04/13 14:45:53;;;;;;;6.80;3.30;;;;;;;21.15;44.70;99245.96;436030;1253;99228;-42
2024/04/13 14:56:02;;;;;;;5.10;2.50;;;;;;;21.07;45.16;99234.44;436050;1247;108604;-40
2024/04/13 15:06:07;;;;;;;11.20;6.60;;;;;;;21.11;45.14;99230.80;436316;1250;99262;-41
2024/04/13 15:16:13;;;;;;;6.10;3.80;;;;;;;21.14;45.40;99228.72;436298;1247;111808;-41
2024/04/13 15:26:18;;;;;;;2.80;2.50;;;;;;;20.95;45.06;99222.80;436374;1247;108741;-40
2024/04/13 15:36:24;;;;;;;6.50;3.20;;;;;;;20.61;45.02;99224.61;436348;1247;99369;-41
2024/04/13 15:46:28;;;;;;;4.70;3.00;;;;;;;20.44;45.34;99215.71;436220;1253;109318;-40
2024/04/13 15:56:37;;;;;;;9.20;3.50;;;;;;;20.35;45.74;99209.78;436387;1247;99215;-41
2024/04/13 16:06:42;;;;;;;5.80;3.40;;;;;;;20.24;46.24;99203.40;436323;1247;112115;-43
2024/04/13 16:16:48;;;;;;;7.20;3.70;;;;;;;20.14;46.68;99202.94;436338;1248;109401;-41
2024/04/13 16:26:52;;;;;;;6.90;4.50;;;;;;;19.82;47.24;99201.39;436445;1247;97979;-40
2024/04/13 16:36:58;;;;;;;9.20;5.20;;;;;;;19.56;48.06;99187.48;436239;1247;108457;-42
2024/04/13 16:47:03;;;;;;;7.00;3.90;;;;;;;19.37;48.64;99185.35;436414;1247;98866;-41
2024/04/13 16:57:08;;;;;;;10.60;5.50;;;;;;;19.15;49.22;99175.22;436379;1247;112254;-43
2024/04/13 17:07:13;;;;;;;11.50;5.80;;;;;;;18.91;49.87;99182.18;436266;1247;108779;-42
2024/04/13 17:17:21;;;;;;;10.90;5.20;;;;;;;18.63;50.61;99177.00;436331;1253;99250;-41
2024/04/13 17:27:26;;;;;;;17.30;6.90;;;;;;;18.18;51.42;99175.78;436348;1253;108025;-40
2024/04/13 17:37:31;;;;;;;11.70;8.40;;;;;;;17.61;52.45;99177.45;436305;1253;99236;-40
2024/04/13 17:47:37;;;;;;;48.40;12.00;;;;;;;17.11;53.46;99176.45;435876;1254;591575;-41
2024/04/13 17:57:42;;;;;;;22.80;14.10;;;;;;;16.71;54.50;99166.39;436392;1250;109869;-41
2024/04/13 18:07:47;;;;;;;30.70;12.70;;;;;;;16.40;55.27;99171.91;436304;1249;98006;-41
2024/04/13 18:17:53;;;;;;;12.10;9.40;;;;;;;16.18;56.09;99166.65;436304;1253;109437;-41
2024/04/13 18:28:03;;;;;;;21.80;9.20;;;;;;;15.94;56.75;99167.15;436643;1248;97919;-40
2024/04/13 18:38:09;;;;;;;20.50;10.40;;;;;;;15.51;57.38;99175.49;436604;1247;112086;-41
2024/04/13 18:48:14;;;;;;;16.70;9.50;;;;;;;15.10;58.23;99177.67;436537;1253;108439;-40
2024/04/13 18:58:19;;;;;;;15.00;9.30;;;;;;;14.87;59.12;99173.13;436394;1253;98014;-41
2024/04/13 19:08:29;;;;;;;32.20;21.90;;;;;;;14.94;59.77;99168.79;436335;1247;108598;-41
2024/04/13 19:18:34;;;;;;;38.50;27.20;;;;;;;15.05;60.22;99168.30;436458;1248;98834;-40
2024/04/13 19:28:41;;;;;;;37.70;26.10;;;;;;;15.09;60.52;99156.98;436244;1253;111750;-41
2024/04/13 19:38:47;;;;;;;39.60;25.20;;;;;;;15.03;60.90;99147.96;436405;1253;110709;-41
2024/04/13 19:48:52;;;;;;;38.50;24.70;;;;;;;14.98;61.10;99140.88;436281;1253;99200;-42
2024/04/13 19:58:57;;;;;;;33.60;21.40;;;;;;;14.97;61.46;99137.24;436353;1252;108656;-41
2024/04/13 20:09:03;;;;;;;28.20;20.30;;;;;;;15.06;61.92;99131.96;436305;1252;99203;-41
2024/04/13 20:19:10;;;;;;;22.70;16.90;;;;;;;15.12;62.29;99125.29;436215;1253;112023;-40
2024/04/13 20:29:15;;;;;;;24.50;18.00;;;;;;;15.03;62.76;99113.29;436462;1248;108531;-39
2024/04/13 20:39:20;;;;;;;24.90;19.40;;;;;;;14.87;63.02;99104.83;436645;1252;99713;-41
2024/04/13 20:49:25;;;;;;;36.20;21.90;;;;;;;14.78;63.15;99105.02;436462;1247;109429;-41
2024/04/13 20:59:30;;;;;;;31.80;21.30;;;;;;;14.72;63.59;99094.98;436327;1261;99243;-41
2024/04/13 21:09:35;;;;;;;24.30;19.40;;;;;;;14.63;64.05;99091.23;436304;1251;113101;-41
2024/04/13 21:19:44;;;;;;;23.60;15.90;;;;;;;14.56;64.38;99089.59;436425;1253;108586;-41
2024/04/13 21:29:49;;;;;;;24.70;16.20;;;;;;;14.45;64.72;99062.48;436368;1251;99215;-43
2024/04/13 21:39:54;;;;;;;29.20;17.00;;;;;;;14.44;64.83;99049.77;436371;1252;108263;-41
2024/04/13 21:49:59;;;;;;;23.50;16.40;;;;;;;14.41;65.11;99032.85;436199;1251;99232;-40
2024/04/13 22:00:07;;;;;;;28.50;19.40;;;;;;;14.32;65.38;99029.18;436376;1253;112060;-40
2024/04/13 22:10:16;;;;;;;;;;;;;;;14.06;65.67;99019.80;436372;1253;108493;-40
2024/04/13 22:20:20;;;;;;;;;;;;;;;13.79;66.15;99011.84;436449;1252;99113;-40
2024/04/13 22:30:25;;;;;;;38.40;25.50;;;;;;;13.54;66.58;98996.73;436404;1253;108255;-41
2024/04/13 22:40:30;;;;;;;39.70;27.00;;;;;;;13.37;66.90;98985.23;436375;1253;99254;-43
2024/04/13 22:50:38;;;;;;;36.30;22.50;;;;;;;13.32;67.36;98975.05;436182;1253;112120;-41
2024/04/13 23:00:48;;;;;;;32.70;23.00;;;;;;;13.29;67.83;98967.10;436232;1253;107223;-40
2024/04/13 23:10:53;;;;;;;29.00;22.00;;;;;;;13.23;68.24;98956.23;436298;1248;99219;-41
2024/04/13 23:20:59;;;;;;;34.60;24.10;;;;;;;13.12;68.57;98953.52;436290;1253;108336;-41
2024/04/13 23:31:04;;;;;;;28.10;20.70;;;;;;;13.03;69.02;98936.33;436239;1253;99240;-40
2024/04/13 23:41:09;;;;;;;27.30;18.90;;;;;;;12.99;69.22;98923.81;436302;1253;110983;-42
2024/04/13 23:51:14;;;;;;;24.50;18.90;;;;;;;12.93;69.54;98916.64;436403;1253;108153;-41
